EJU91LZ LSZH-LPPT
Flight info
| Callsign | EJU91LZ |
|---|---|
| Flight time | N/A |
| Altitude | 35000 |
| Route | VEBIT T50 ROTOS Z669 ULMES DCT VADAR DCT NINTU DCT MEBAK DCT REPSI DCT LERGA DCT MINSO DCT NARAK DCT AGN DCT LATEK DCT PPN N976 NEA DCT ARDID DCT INBOM |
| Aircraft | A320/M-SDE3FGHIRWY/LB1 |
Departure
| Time | 2026-05-06 17:08 |
|---|---|
| Airport | Zürich Airport (LSZH) |
Arrival
| Time | N/A |
|---|---|
| Airport | Lisbon Humberto Delgado Airport (LPPT) |
| Time | Latitude | Longitude | Altitude | Speed | Heading |
|---|---|---|---|---|---|
| 2026-05-06 16:14 | 47.44797 | 8.55900 | 1397 ft | 0 kts | 245° |
| 2026-05-06 17:01 | 47.44794 | 8.55889 | 1400 ft | 3 kts | 245° |
| 2026-05-06 17:01 | 47.44778 | 8.55808 | 1395 ft | 7 kts | 298° |
| 2026-05-06 17:02 | 47.44837 | 8.55754 | 1395 ft | 15 kts | 332° |
| 2026-05-06 17:02 | 47.44935 | 8.55713 | 1397 ft | 13 kts | 3° |
| 2026-05-06 17:02 | 47.44994 | 8.55726 | 1402 ft | 5 kts | 6° |
| 2026-05-06 17:02 | 47.45048 | 8.55709 | 1407 ft | 13 kts | 335° |
| 2026-05-06 17:03 | 47.45169 | 8.55625 | 1409 ft | 23 kts | 335° |
| 2026-05-06 17:03 | 47.45322 | 8.55549 | 1411 ft | 23 kts | 339° |
| 2026-05-06 17:03 | 47.45472 | 8.55442 | 1405 ft | 25 kts | 333° |
| 2026-05-06 17:03 | 47.45581 | 8.55367 | 1401 ft | 4 kts | 336° |
| 2026-05-06 17:04 | 47.45601 | 8.55353 | 1403 ft | 4 kts | 335° |
| 2026-05-06 17:04 | 47.45667 | 8.55360 | 1405 ft | 12 kts | 77° |
| 2026-05-06 17:04 | 47.45663 | 8.55499 | 1402 ft | 20 kts | 93° |
| 2026-05-06 17:04 | 47.45649 | 8.55705 | 1405 ft | 18 kts | 96° |
| 2026-05-06 17:05 | 47.45636 | 8.55900 | 1409 ft | 23 kts | 96° |
| 2026-05-06 17:05 | 47.45613 | 8.56175 | 1411 ft | 28 kts | 97° |
| 2026-05-06 17:05 | 47.45593 | 8.56452 | 1414 ft | 26 kts | 96° |
| 2026-05-06 17:05 | 47.45579 | 8.56706 | 1418 ft | 23 kts | 95° |
| 2026-05-06 17:06 | 47.45563 | 8.56916 | 1420 ft | 19 kts | 96° |
| 2026-05-06 17:06 | 47.45616 | 8.57022 | 1424 ft | 11 kts | 11° |
| 2026-05-06 17:06 | 47.45663 | 8.57015 | 1425 ft | 3 kts | 306° |
| 2026-05-06 17:06 | 47.45664 | 8.56991 | 1424 ft | 2 kts | 275° |
| 2026-05-06 17:07 | 47.45665 | 8.56985 | 1424 ft | 0 kts | 275° |
| 2026-05-06 17:08 | 47.45677 | 8.56797 | 1421 ft | 53 kts | 276° |
| 2026-05-06 17:08 | 47.45740 | 8.55906 | 1410 ft | 118 kts | 276° |
| 2026-05-06 17:08 | 47.45845 | 8.54457 | 1555 ft | 153 kts | 274° |
| 2026-05-06 17:08 | 47.45973 | 8.52917 | 2283 ft | 150 kts | 273° |
| 2026-05-06 17:09 | 47.46081 | 8.51376 | 2987 ft | 150 kts | 273° |
| 2026-05-06 17:09 | 47.46190 | 8.49850 | 3605 ft | 150 kts | 274° |
| 2026-05-06 17:09 | 47.46276 | 8.48307 | 4087 ft | 150 kts | 266° |
| 2026-05-06 17:09 | 47.45938 | 8.46886 | 4586 ft | 150 kts | 234° |
| 2026-05-06 17:10 | 47.45096 | 8.45861 | 4833 ft | 171 kts | 212° |
| 2026-05-06 17:10 | 47.44038 | 8.44862 | 4972 ft | 191 kts | 224° |
| 2026-05-06 17:10 | 47.43117 | 8.43312 | 5295 ft | 204 kts | 236° |
| 2026-05-06 17:10 | 47.42283 | 8.41550 | 5588 ft | 222 kts | 236° |
| 2026-05-06 17:11 | 47.41341 | 8.39569 | 5943 ft | 243 kts | 236° |
| 2026-05-06 17:11 | 47.40348 | 8.37483 | 6577 ft | 251 kts | 235° |
| 2026-05-06 17:11 | 47.39339 | 8.35369 | 7292 ft | 254 kts | 235° |
| 2026-05-06 17:11 | 47.38435 | 8.33108 | 8067 ft | 257 kts | 242° |
| 2026-05-06 17:12 | 47.37598 | 8.30754 | 8815 ft | 262 kts | 242° |
| 2026-05-06 17:12 | 47.36742 | 8.28351 | 9557 ft | 266 kts | 242° |
| 2026-05-06 17:12 | 47.35876 | 8.25921 | 10197 ft | 273 kts | 242° |
| 2026-05-06 17:12 | 47.34954 | 8.23337 | 10375 ft | 296 kts | 242° |
| 2026-05-06 17:13 | 47.34302 | 8.21514 | 10494 ft | 309 kts | 242° |
| 2026-05-06 17:13 | 47.33285 | 8.18664 | 11023 ft | 317 kts | 242° |
| 2026-05-06 17:13 | 47.32255 | 8.15766 | 11689 ft | 321 kts | 242° |
| 2026-05-06 17:13 | 47.31214 | 8.12833 | 12343 ft | 325 kts | 242° |
| 2026-05-06 17:14 | 47.30164 | 8.09869 | 12993 ft | 328 kts | 242° |
| 2026-05-06 17:14 | 47.29100 | 8.06868 | 13638 ft | 332 kts | 242° |
| 2026-05-06 17:14 | 47.28020 | 8.03836 | 14210 ft | 336 kts | 241° |
| 2026-05-06 17:14 | 47.26937 | 8.00773 | 14787 ft | 339 kts | 243° |
| 2026-05-06 17:15 | 47.26015 | 7.97551 | 15347 ft | 343 kts | 246° |
| 2026-05-06 17:15 | 47.25108 | 7.94289 | 15911 ft | 346 kts | 246° |
| 2026-05-06 17:15 | 47.24177 | 7.90960 | 16484 ft | 349 kts | 246° |
| 2026-05-06 17:15 | 47.23257 | 7.87685 | 17036 ft | 352 kts | 246° |
| 2026-05-06 17:16 | 47.22304 | 7.84300 | 17588 ft | 355 kts | 246° |
| 2026-05-06 17:16 | 47.21352 | 7.80925 | 18133 ft | 359 kts | 246° |
| 2026-05-06 17:16 | 47.20390 | 7.77521 | 18614 ft | 362 kts | 246° |
| 2026-05-06 17:16 | 47.19409 | 7.74108 | 19102 ft | 364 kts | 243° |
| 2026-05-06 17:17 | 47.18114 | 7.70896 | 19569 ft | 366 kts | 232° |
| 2026-05-06 17:17 | 47.16541 | 7.67945 | 20051 ft | 369 kts | 231° |
| 2026-05-06 17:17 | 47.14940 | 7.64981 | 20542 ft | 371 kts | 230° |
| 2026-05-06 17:17 | 47.13326 | 7.62002 | 21031 ft | 374 kts | 230° |
| 2026-05-06 17:18 | 47.11704 | 7.59008 | 21511 ft | 377 kts | 230° |
| 2026-05-06 17:18 | 47.10062 | 7.55977 | 21988 ft | 380 kts | 230° |
| 2026-05-06 17:18 | 47.08413 | 7.52935 | 22450 ft | 383 kts | 230° |
| 2026-05-06 17:18 | 47.06746 | 7.49865 | 22888 ft | 386 kts | 230° |
| 2026-05-06 17:19 | 47.05075 | 7.46786 | 23325 ft | 388 kts | 229° |
| 2026-05-06 17:19 | 47.03388 | 7.43680 | 23710 ft | 391 kts | 229° |
| 2026-05-06 17:19 | 47.01688 | 7.40559 | 24098 ft | 392 kts | 229° |
| 2026-05-06 17:19 | 46.99980 | 7.37438 | 24499 ft | 393 kts | 229° |
| 2026-05-06 17:20 | 46.98262 | 7.34306 | 24859 ft | 395 kts | 229° |
| 2026-05-06 17:20 | 46.96539 | 7.31167 | 25221 ft | 396 kts | 229° |
| 2026-05-06 17:20 | 46.94811 | 7.28018 | 25570 ft | 398 kts | 229° |
| 2026-05-06 17:20 | 46.93076 | 7.24851 | 25951 ft | 398 kts | 229° |
| 2026-05-06 17:21 | 46.91347 | 7.21691 | 26320 ft | 399 kts | 229° |
| 2026-05-06 17:21 | 46.89602 | 7.18508 | 26681 ft | 400 kts | 229° |
| 2026-05-06 17:21 | 46.87857 | 7.15334 | 27014 ft | 402 kts | 229° |
| 2026-05-06 17:21 | 46.86103 | 7.12148 | 27341 ft | 403 kts | 229° |
| 2026-05-06 17:22 | 46.84341 | 7.08947 | 27663 ft | 405 kts | 229° |
| 2026-05-06 17:22 | 46.82572 | 7.05735 | 27985 ft | 406 kts | 229° |
| 2026-05-06 17:22 | 46.80799 | 7.02524 | 28289 ft | 407 kts | 229° |
| 2026-05-06 17:22 | 46.79014 | 6.99295 | 28586 ft | 409 kts | 229° |
| 2026-05-06 17:23 | 46.77223 | 6.96063 | 28864 ft | 410 kts | 229° |
| 2026-05-06 17:23 | 46.75429 | 6.92822 | 29139 ft | 411 kts | 229° |
| 2026-05-06 17:23 | 46.73628 | 6.89569 | 29449 ft | 413 kts | 230° |
| 2026-05-06 17:23 | 46.71814 | 6.86296 | 29594 ft | 417 kts | 230° |
| 2026-05-06 17:24 | 46.69984 | 6.82997 | 29792 ft | 420 kts | 230° |
| 2026-05-06 17:24 | 46.68117 | 6.79644 | 30017 ft | 422 kts | 230° |
| 2026-05-06 17:24 | 46.66265 | 6.76318 | 30212 ft | 423 kts | 231° |
| 2026-05-06 17:24 | 46.64629 | 6.72746 | 30432 ft | 425 kts | 237° |
| 2026-05-06 17:25 | 46.63109 | 6.69084 | 30728 ft | 423 kts | 237° |
| 2026-05-06 17:25 | 46.61584 | 6.65420 | 31018 ft | 422 kts | 237° |
| 2026-05-06 17:25 | 46.60062 | 6.61769 | 31299 ft | 421 kts | 237° |
| 2026-05-06 17:25 | 46.58548 | 6.58141 | 31582 ft | 420 kts | 237° |
| 2026-05-06 17:26 | 46.57029 | 6.54513 | 31878 ft | 419 kts | 237° |
| 2026-05-06 17:26 | 46.55514 | 6.50903 | 32152 ft | 418 kts | 237° |
| 2026-05-06 17:26 | 46.54002 | 6.47301 | 32433 ft | 417 kts | 237° |
| 2026-05-06 17:26 | 46.52492 | 6.43708 | 32685 ft | 418 kts | 237° |
| 2026-05-06 17:27 | 46.50970 | 6.40091 | 32822 ft | 421 kts | 237° |
| 2026-05-06 17:27 | 46.49441 | 6.36463 | 33020 ft | 422 kts | 237° |
| 2026-05-06 17:27 | 46.47908 | 6.32828 | 33254 ft | 422 kts | 237° |
| 2026-05-06 17:27 | 46.46376 | 6.29201 | 33522 ft | 421 kts | 237° |
| 2026-05-06 17:28 | 46.44844 | 6.25583 | 33808 ft | 421 kts | 237° |
| 2026-05-06 17:28 | 46.41788 | 6.18372 | 33923 ft | 420 kts | 237° |
| 2026-05-06 17:29 | 46.38731 | 6.11172 | 33922 ft | 418 kts | 237° |
| 2026-05-06 17:29 | 46.35686 | 6.04017 | 33924 ft | 417 kts | 237° |
| 2026-05-06 17:30 | 46.32630 | 5.96855 | 33920 ft | 421 kts | 237° |
| 2026-05-06 17:30 | 46.29536 | 5.89639 | 33919 ft | 422 kts | 237° |
| 2026-05-06 17:31 | 46.26441 | 5.82432 | 33923 ft | 422 kts | 237° |
| 2026-05-06 17:31 | 46.23340 | 5.75215 | 33925 ft | 423 kts | 237° |
| 2026-05-06 17:32 | 46.20234 | 5.68024 | 33928 ft | 421 kts | 237° |
| 2026-05-06 17:32 | 46.17126 | 5.60857 | 33924 ft | 421 kts | 237° |
| 2026-05-06 17:33 | 46.13985 | 5.53655 | 33923 ft | 422 kts | 236° |
| 2026-05-06 17:33 | 46.10693 | 5.46659 | 33922 ft | 422 kts | 234° |
| 2026-05-06 17:34 | 46.07304 | 5.39753 | 33922 ft | 422 kts | 234° |
| 2026-05-06 17:34 | 46.03931 | 5.32839 | 33915 ft | 422 kts | 235° |
| 2026-05-06 17:35 | 46.00591 | 5.25925 | 33923 ft | 420 kts | 235° |
| 2026-05-06 17:35 | 45.97266 | 5.19019 | 33918 ft | 420 kts | 235° |
| 2026-05-06 17:36 | 45.92265 | 5.08684 | 33920 ft | 421 kts | 235° |
| 2026-05-06 17:36 | 45.88906 | 5.01783 | 33919 ft | 422 kts | 234° |
| 2026-05-06 17:37 | 45.85534 | 4.94892 | 33915 ft | 421 kts | 235° |
| 2026-05-06 17:37 | 45.82220 | 4.88115 | 33919 ft | 412 kts | 235° |
| 2026-05-06 17:38 | 45.78931 | 4.81402 | 33920 ft | 411 kts | 234° |
| 2026-05-06 17:38 | 45.75647 | 4.74713 | 33919 ft | 411 kts | 234° |
| 2026-05-06 17:39 | 45.72351 | 4.68014 | 33918 ft | 412 kts | 234° |
| 2026-05-06 17:39 | 45.69036 | 4.61305 | 33913 ft | 413 kts | 234° |
| 2026-05-06 17:40 | 45.65713 | 4.54591 | 33915 ft | 413 kts | 234° |
| 2026-05-06 17:40 | 45.62371 | 4.47846 | 33918 ft | 413 kts | 234° |
| 2026-05-06 17:41 | 45.59049 | 4.41154 | 33920 ft | 413 kts | 234° |
| 2026-05-06 17:41 | 45.55723 | 4.34475 | 33918 ft | 413 kts | 234° |
| 2026-05-06 17:42 | 45.52391 | 4.27807 | 33921 ft | 412 kts | 234° |
| 2026-05-06 17:42 | 45.49048 | 4.21128 | 33902 ft | 413 kts | 234° |
| 2026-05-06 17:43 | 45.45703 | 4.14467 | 33906 ft | 414 kts | 234° |
| 2026-05-06 17:43 | 45.42353 | 4.07806 | 33909 ft | 414 kts | 234° |
| 2026-05-06 17:44 | 45.38991 | 4.01155 | 33910 ft | 414 kts | 234° |
| 2026-05-06 17:44 | 45.35624 | 3.94504 | 33915 ft | 414 kts | 234° |
| 2026-05-06 17:45 | 45.32260 | 3.87859 | 33918 ft | 414 kts | 234° |
| 2026-05-06 17:45 | 45.28891 | 3.81222 | 33913 ft | 414 kts | 234° |
| 2026-05-06 17:46 | 45.25510 | 3.74591 | 33905 ft | 414 kts | 234° |
| 2026-05-06 17:46 | 45.22184 | 3.67916 | 33905 ft | 415 kts | 236° |
| 2026-05-06 17:47 | 45.18904 | 3.61191 | 33907 ft | 415 kts | 236° |
| 2026-05-06 17:47 | 45.16168 | 3.55603 | 33909 ft | 415 kts | 235° |
| 2026-05-06 17:48 | 45.12835 | 3.48861 | 33899 ft | 415 kts | 235° |
| 2026-05-06 17:48 | 45.09518 | 3.42189 | 33916 ft | 414 kts | 235° |
| 2026-05-06 17:49 | 45.06199 | 3.35532 | 33927 ft | 414 kts | 235° |
| 2026-05-06 17:49 | 45.02891 | 3.28888 | 33927 ft | 413 kts | 235° |
| 2026-05-06 17:50 | 44.99584 | 3.22243 | 33928 ft | 413 kts | 235° |
| 2026-05-06 17:50 | 44.96275 | 3.15624 | 33934 ft | 413 kts | 235° |
| 2026-05-06 17:51 | 44.92949 | 3.09015 | 33928 ft | 412 kts | 235° |
| 2026-05-06 17:51 | 44.89628 | 3.02424 | 33937 ft | 412 kts | 235° |
| 2026-05-06 17:52 | 44.86301 | 2.95834 | 33931 ft | 413 kts | 235° |
| 2026-05-06 17:52 | 44.83013 | 2.89191 | 33930 ft | 413 kts | 237° |
| 2026-05-06 17:53 | 44.79907 | 2.82385 | 33935 ft | 413 kts | 238° |
| 2026-05-06 17:53 | 44.76833 | 2.75549 | 33935 ft | 413 kts | 238° |
| 2026-05-06 17:54 | 44.73732 | 2.68781 | 33939 ft | 413 kts | 238° |
| 2026-05-06 17:54 | 44.70582 | 2.62008 | 33934 ft | 414 kts | 237° |
| 2026-05-06 17:55 | 44.67399 | 2.55194 | 33930 ft | 415 kts | 237° |
| 2026-05-06 17:55 | 44.64234 | 2.48392 | 33941 ft | 416 kts | 237° |
| 2026-05-06 17:56 | 44.61062 | 2.41592 | 33948 ft | 417 kts | 237° |
| 2026-05-06 17:56 | 44.57883 | 2.34794 | 33943 ft | 416 kts | 238° |
| 2026-05-06 17:57 | 44.54708 | 2.28019 | 33952 ft | 416 kts | 238° |
| 2026-05-06 17:57 | 44.51521 | 2.21235 | 33948 ft | 417 kts | 238° |
| 2026-05-06 17:58 | 44.48329 | 2.14457 | 33939 ft | 417 kts | 237° |
| 2026-05-06 17:58 | 44.45125 | 2.07689 | 33940 ft | 417 kts | 237° |
| 2026-05-06 17:59 | 44.41916 | 2.00910 | 33931 ft | 417 kts | 237° |
| 2026-05-06 17:59 | 44.38715 | 1.94149 | 33924 ft | 417 kts | 238° |
| 2026-05-06 18:00 | 44.35507 | 1.87408 | 33940 ft | 416 kts | 238° |
| 2026-05-06 18:00 | 44.32291 | 1.80672 | 33937 ft | 417 kts | 238° |
| 2026-05-06 18:01 | 44.29070 | 1.73941 | 33935 ft | 417 kts | 238° |
| 2026-05-06 18:01 | 44.25914 | 1.67148 | 33939 ft | 417 kts | 239° |
| 2026-05-06 18:02 | 44.22812 | 1.60311 | 33939 ft | 417 kts | 239° |
| 2026-05-06 18:02 | 44.19677 | 1.53445 | 33947 ft | 417 kts | 239° |
| 2026-05-06 18:03 | 44.16539 | 1.46649 | 33949 ft | 417 kts | 239° |
| 2026-05-06 18:03 | 44.13392 | 1.39857 | 33954 ft | 417 kts | 239° |
| 2026-05-06 18:04 | 44.10245 | 1.33060 | 33957 ft | 418 kts | 239° |
| 2026-05-06 18:04 | 44.07090 | 1.26272 | 33958 ft | 418 kts | 239° |
| 2026-05-06 18:05 | 44.03922 | 1.19502 | 33960 ft | 418 kts | 239° |
| 2026-05-06 18:05 | 44.00747 | 1.12731 | 33945 ft | 417 kts | 239° |
| 2026-05-06 18:06 | 43.97586 | 1.05981 | 33963 ft | 417 kts | 239° |
| 2026-05-06 18:06 | 43.94426 | 0.99239 | 33967 ft | 416 kts | 239° |
| 2026-05-06 18:07 | 43.91256 | 0.92505 | 33973 ft | 416 kts | 239° |
| 2026-05-06 18:07 | 43.87923 | 0.85930 | 33975 ft | 418 kts | 231° |
| 2026-05-06 18:08 | 43.84037 | 0.79933 | 33970 ft | 418 kts | 231° |
| 2026-05-06 18:08 | 43.80181 | 0.73964 | 33963 ft | 417 kts | 231° |
| 2026-05-06 18:09 | 43.76313 | 0.67972 | 33972 ft | 417 kts | 231° |
| 2026-05-06 18:09 | 43.72446 | 0.62014 | 33980 ft | 416 kts | 231° |
| 2026-05-06 18:10 | 43.68540 | 0.56023 | 33984 ft | 416 kts | 231° |
| 2026-05-06 18:10 | 43.64661 | 0.50081 | 33988 ft | 416 kts | 231° |
| 2026-05-06 18:11 | 43.60810 | 0.44194 | 33988 ft | 416 kts | 231° |
| 2026-05-06 18:11 | 43.56910 | 0.38228 | 33999 ft | 415 kts | 231° |
| 2026-05-06 18:12 | 43.53042 | 0.32331 | 33998 ft | 414 kts | 231° |
| 2026-05-06 18:12 | 43.49172 | 0.26457 | 34002 ft | 414 kts | 231° |
| 2026-05-06 18:13 | 43.45301 | 0.20593 | 33998 ft | 414 kts | 231° |
| 2026-05-06 18:13 | 43.41433 | 0.14740 | 33995 ft | 413 kts | 231° |
| 2026-05-06 18:14 | 43.37573 | 0.08907 | 34007 ft | 412 kts | 231° |
| 2026-05-06 18:14 | 43.33723 | 0.03091 | 34011 ft | 411 kts | 231° |
| 2026-05-06 18:15 | 43.29872 | -0.02706 | 34024 ft | 411 kts | 231° |
| 2026-05-06 18:15 | 43.26017 | -0.08492 | 34023 ft | 411 kts | 231° |
| 2026-05-06 18:16 | 43.22158 | -0.14270 | 34005 ft | 411 kts | 231° |
| 2026-05-06 18:16 | 43.18299 | -0.20032 | 34022 ft | 409 kts | 231° |
| 2026-05-06 18:17 | 43.14458 | -0.25776 | 34026 ft | 409 kts | 231° |
| 2026-05-06 18:17 | 43.10621 | -0.31499 | 34025 ft | 408 kts | 230° |
| 2026-05-06 18:18 | 43.06780 | -0.37212 | 34015 ft | 407 kts | 230° |
| 2026-05-06 18:18 | 43.02939 | -0.42907 | 34011 ft | 408 kts | 230° |
| 2026-05-06 18:19 | 42.99097 | -0.48590 | 34001 ft | 406 kts | 231° |
| 2026-05-06 18:19 | 42.95299 | -0.54202 | 34033 ft | 405 kts | 230° |
| 2026-05-06 18:20 | 42.91470 | -0.59848 | 34015 ft | 404 kts | 231° |
| 2026-05-06 18:20 | 42.88151 | -0.65933 | 34015 ft | 397 kts | 246° |
| 2026-05-06 18:21 | 42.86540 | -0.73038 | 34003 ft | 393 kts | 261° |
| 2026-05-06 18:21 | 42.85584 | -0.80382 | 33986 ft | 394 kts | 260° |
| 2026-05-06 18:22 | 42.84610 | -0.87744 | 33986 ft | 395 kts | 260° |
| 2026-05-06 18:22 | 42.83640 | -0.95054 | 33989 ft | 395 kts | 260° |
| 2026-05-06 18:23 | 42.82661 | -1.02413 | 33991 ft | 395 kts | 260° |
| 2026-05-06 18:23 | 42.81670 | -1.09788 | 33994 ft | 395 kts | 260° |
| 2026-05-06 18:24 | 42.80675 | -1.17144 | 33990 ft | 395 kts | 260° |
| 2026-05-06 18:24 | 42.79677 | -1.24520 | 33992 ft | 396 kts | 260° |
| 2026-05-06 18:25 | 42.78678 | -1.31845 | 33987 ft | 397 kts | 260° |
| 2026-05-06 18:25 | 42.77664 | -1.39235 | 33987 ft | 397 kts | 260° |
| 2026-05-06 18:26 | 42.76656 | -1.46611 | 33986 ft | 397 kts | 260° |
| 2026-05-06 18:26 | 42.75636 | -1.54009 | 33984 ft | 398 kts | 260° |
| 2026-05-06 18:27 | 42.74610 | -1.61399 | 33981 ft | 399 kts | 260° |
| 2026-05-06 18:27 | 42.73747 | -1.67569 | 33982 ft | 399 kts | 260° |
| 2026-05-06 18:28 | 42.72065 | -1.76046 | 33986 ft | 401 kts | 254° |
| 2026-05-06 18:28 | 42.70433 | -1.83286 | 33991 ft | 401 kts | 254° |
| 2026-05-06 18:29 | 42.69065 | -1.89370 | 33998 ft | 401 kts | 254° |
| 2026-05-06 18:29 | 42.67427 | -1.96622 | 33991 ft | 402 kts | 254° |
| 2026-05-06 18:30 | 42.65784 | -2.03878 | 33991 ft | 402 kts | 254° |
| 2026-05-06 18:30 | 42.64127 | -2.11136 | 33992 ft | 402 kts | 253° |
| 2026-05-06 18:31 | 42.62443 | -2.18424 | 34297 ft | 406 kts | 253° |
| 2026-05-06 18:31 | 42.61570 | -2.22064 | 34513 ft | 406 kts | 253° |
| 2026-05-06 18:31 | 42.60691 | -2.25664 | 34725 ft | 406 kts | 252° |
| 2026-05-06 18:32 | 42.59795 | -2.29306 | 34923 ft | 407 kts | 252° |
| 2026-05-06 18:32 | 42.58898 | -2.32952 | 34996 ft | 408 kts | 252° |
| 2026-05-06 18:32 | 42.57109 | -2.40259 | 35005 ft | 408 kts | 252° |
| 2026-05-06 18:33 | 42.55328 | -2.47561 | 34997 ft | 408 kts | 252° |
| 2026-05-06 18:33 | 42.53544 | -2.54857 | 35011 ft | 408 kts | 252° |
| 2026-05-06 18:34 | 42.51769 | -2.62104 | 35013 ft | 408 kts | 252° |
| 2026-05-06 18:34 | 42.49973 | -2.69399 | 35004 ft | 408 kts | 252° |
| 2026-05-06 18:35 | 42.48168 | -2.76692 | 35010 ft | 408 kts | 252° |
| 2026-05-06 18:35 | 42.46357 | -2.83982 | 34992 ft | 408 kts | 252° |
| 2026-05-06 18:36 | 42.44290 | -2.91146 | 35009 ft | 409 kts | 246° |
| 2026-05-06 18:36 | 42.41907 | -2.98129 | 34996 ft | 409 kts | 246° |
| 2026-05-06 18:37 | 42.39536 | -3.05088 | 34992 ft | 409 kts | 246° |
| 2026-05-06 18:37 | 42.37152 | -3.12083 | 34985 ft | 410 kts | 246° |
| 2026-05-06 18:38 | 42.34770 | -3.19063 | 34971 ft | 410 kts | 246° |
| 2026-05-06 18:38 | 42.32379 | -3.26044 | 34976 ft | 409 kts | 246° |
| 2026-05-06 18:39 | 42.29978 | -3.33019 | 34973 ft | 409 kts | 246° |
| 2026-05-06 18:40 | 42.26381 | -3.43455 | 34963 ft | 408 kts | 246° |
| 2026-05-06 18:40 | 42.23986 | -3.50358 | 34969 ft | 409 kts | 246° |
| 2026-05-06 18:41 | 42.21572 | -3.57301 | 34958 ft | 409 kts | 246° |
| 2026-05-06 18:41 | 42.19163 | -3.64237 | 34963 ft | 409 kts | 246° |
| 2026-05-06 18:42 | 42.16743 | -3.71184 | 34953 ft | 409 kts | 246° |
| 2026-05-06 18:42 | 42.14311 | -3.78132 | 34940 ft | 409 kts | 246° |
| 2026-05-06 18:43 | 42.11882 | -3.85064 | 34942 ft | 410 kts | 245° |
| 2026-05-06 18:43 | 42.09443 | -3.92002 | 34939 ft | 410 kts | 245° |
| 2026-05-06 18:44 | 42.06993 | -3.98943 | 34938 ft | 411 kts | 245° |
| 2026-05-06 18:44 | 42.04551 | -4.05833 | 34941 ft | 411 kts | 245° |
| 2026-05-06 18:45 | 42.02086 | -4.12773 | 34946 ft | 411 kts | 245° |
| 2026-05-06 18:45 | 41.99511 | -4.19636 | 34948 ft | 411 kts | 244° |
| 2026-05-06 18:46 | 41.96881 | -4.26466 | 34946 ft | 411 kts | 243° |
| 2026-05-06 18:46 | 41.94255 | -4.33293 | 34944 ft | 411 kts | 244° |
| 2026-05-06 18:47 | 41.91637 | -4.40131 | 34945 ft | 412 kts | 244° |
| 2026-05-06 18:47 | 41.89046 | -4.46923 | 34936 ft | 412 kts | 244° |
| 2026-05-06 18:48 | 41.86430 | -4.53749 | 34945 ft | 411 kts | 244° |
| 2026-05-06 18:48 | 41.83806 | -4.60577 | 34950 ft | 411 kts | 243° |
| 2026-05-06 18:49 | 41.81179 | -4.67392 | 34952 ft | 411 kts | 243° |
| 2026-05-06 18:49 | 41.78544 | -4.74198 | 34947 ft | 411 kts | 243° |
| 2026-05-06 18:50 | 41.75906 | -4.80989 | 34947 ft | 411 kts | 243° |
| 2026-05-06 18:50 | 41.73266 | -4.87788 | 34944 ft | 411 kts | 243° |
| 2026-05-06 18:51 | 41.70630 | -4.94571 | 34946 ft | 411 kts | 243° |
| 2026-05-06 18:51 | 41.67973 | -5.01361 | 34950 ft | 411 kts | 243° |
| 2026-05-06 18:52 | 41.65341 | -5.08088 | 34933 ft | 411 kts | 243° |
| 2026-05-06 18:52 | 41.62698 | -5.14846 | 34940 ft | 410 kts | 243° |
| 2026-05-06 18:53 | 41.60054 | -5.21593 | 34936 ft | 410 kts | 243° |
| 2026-05-06 18:53 | 41.57393 | -5.28334 | 34934 ft | 410 kts | 243° |
| 2026-05-06 18:54 | 41.54728 | -5.35081 | 34933 ft | 410 kts | 243° |
| 2026-05-06 18:54 | 41.52088 | -5.41760 | 34932 ft | 410 kts | 243° |
| 2026-05-06 18:55 | 41.49417 | -5.48492 | 34933 ft | 410 kts | 243° |
| 2026-05-06 18:55 | 41.46740 | -5.55209 | 34931 ft | 410 kts | 243° |
| 2026-05-06 18:56 | 41.44068 | -5.61937 | 34923 ft | 410 kts | 243° |
| 2026-05-06 18:56 | 41.41398 | -5.68648 | 34912 ft | 410 kts | 242° |
| 2026-05-06 18:57 | 41.38716 | -5.75333 | 34923 ft | 409 kts | 242° |
| 2026-05-06 18:57 | 41.36033 | -5.82003 | 34923 ft | 409 kts | 242° |
| 2026-05-06 18:58 | 41.33343 | -5.88692 | 34922 ft | 409 kts | 242° |
| 2026-05-06 18:58 | 41.30680 | -5.95315 | 34918 ft | 409 kts | 242° |
| 2026-05-06 18:59 | 41.27990 | -6.01979 | 34918 ft | 409 kts | 242° |
| 2026-05-06 18:59 | 41.25302 | -6.08629 | 34915 ft | 409 kts | 242° |
| 2026-05-06 19:00 | 41.22607 | -6.15275 | 34914 ft | 408 kts | 242° |
| 2026-05-06 19:00 | 41.19929 | -6.21861 | 34913 ft | 408 kts | 242° |
| 2026-05-06 19:01 | 41.17184 | -6.28436 | 34897 ft | 408 kts | 237° |
| 2026-05-06 19:01 | 41.13817 | -6.34482 | 34900 ft | 407 kts | 234° |
| 2026-05-06 19:02 | 41.10429 | -6.40500 | 34898 ft | 407 kts | 234° |
| 2026-05-06 19:02 | 41.07038 | -6.46517 | 34896 ft | 407 kts | 234° |
| 2026-05-06 19:03 | 41.03670 | -6.52471 | 34905 ft | 406 kts | 234° |
| 2026-05-06 19:03 | 41.00282 | -6.58453 | 34899 ft | 406 kts | 234° |
| 2026-05-06 19:04 | 40.96887 | -6.64428 | 34904 ft | 406 kts | 234° |
| 2026-05-06 19:04 | 40.93488 | -6.70406 | 34876 ft | 406 kts | 234° |
| 2026-05-06 19:05 | 40.90121 | -6.76326 | 34893 ft | 405 kts | 234° |
| 2026-05-06 19:05 | 40.86736 | -6.82268 | 34900 ft | 405 kts | 234° |
| 2026-05-06 19:06 | 40.83344 | -6.88210 | 34910 ft | 404 kts | 233° |
| 2026-05-06 19:06 | 40.79959 | -6.94114 | 34907 ft | 403 kts | 233° |
| 2026-05-06 19:07 | 40.76581 | -7.00007 | 34910 ft | 402 kts | 233° |